Time;durP1;ratioP1;P1;durP2;ratioP2;P2;SDS_P1;SDS_P2;PMS_P1;PMS_P2;Temp;Humidity;BMP_temperature;BMP_pressure;BME280_temperature;BME280_humidity;BME280_pressure;Samples;Min_cycle;Max_cycle;Signal;HPM_P1;HPM_P2
2023/09/07 00:01:16;;;;;;;8.88;5.50;;;14.50;99.90;;;;;;5023517;28;20025;-84
2023/09/07 00:03:41;;;;;;;9.30;5.38;;;14.50;99.90;;;;;;5024276;28;20025;-84
2023/09/07 00:06:07;;;;;;;6.43;4.40;;;14.50;99.90;;;;;;5023943;28;20087;-85
2023/09/07 00:08:33;;;;;;;10.25;4.90;;;14.40;99.90;;;;;;5024117;28;20037;-85
2023/09/07 00:11:11;;;;;;;7.15;5.47;;;14.40;99.90;;;;;;5023892;28;20049;-85
2023/09/07 00:13:37;;;;;;;8.90;5.55;;;14.40;99.90;;;;;;5024305;28;20030;-85
2023/09/07 00:16:04;;;;;;;8.80;5.35;;;14.40;99.90;;;;;;5023639;28;20036;-85
2023/09/07 00:18:33;;;;;;;8.00;5.18;;;14.40;99.90;;;;;;5024023;28;20024;-85
2023/09/07 00:20:59;;;;;;;6.60;5.20;;;14.30;99.90;;;;;;5026181;28;20040;-85
2023/09/07 00:23:25;;;;;;;9.10;5.40;;;14.30;99.90;;;;;;5028574;28;20029;-85
2023/09/07 00:25:50;;;;;;;7.90;5.72;;;14.30;99.90;;;;;;5028038;28;20025;-85
2023/09/07 00:28:16;;;;;;;9.80;5.93;;;14.30;99.90;;;;;;5027609;28;20021;-84
2023/09/07 00:30:42;;;;;;;7.10;5.88;;;14.30;99.90;;;;;;5027555;28;20029;-84
2023/09/07 00:33:08;;;;;;;8.00;6.00;;;14.20;99.90;;;;;;5027760;28;20034;-85
2023/09/07 00:35:34;;;;;;;8.95;6.43;;;14.20;99.90;;;;;;5028271;28;20022;-84
2023/09/07 00:38:00;;;;;;;7.72;6.35;;;14.20;99.90;;;;;;5027469;28;20037;-85
2023/09/07 00:40:26;;;;;;;7.35;6.47;;;14.20;99.90;;;;;;5027549;28;20034;-85
2023/09/07 00:42:52;;;;;;;7.80;5.60;;;14.20;99.90;;;;;;5027571;28;20034;-85
2023/09/07 00:45:18;;;;;;;6.97;5.18;;;14.20;99.90;;;;;;5027192;28;20373;-86
2023/09/07 00:47:43;;;;;;;7.70;5.60;;;14.20;99.90;;;;;;5027247;28;20053;-85
2023/09/07 00:50:09;;;;;;;8.48;5.95;;;14.20;99.90;;;;;;5027384;28;20038;-85
2023/09/07 00:52:39;;;;;;;7.80;6.18;;;14.10;99.90;;;;;;5027419;28;20037;-85
2023/09/07 00:55:05;;;;;;;11.93;7.30;;;14.10;99.90;;;;;;5027060;28;20021;-85
2023/09/07 00:57:31;;;;;;;12.82;6.82;;;14.10;99.90;;;;;;5027217;28;20385;-86
2023/09/07 00:59:57;;;;;;;7.00;5.82;;;14.10;99.90;;;;;;5027110;28;20022;-85
2023/09/07 01:02:23;;;;;;;10.93;6.15;;;14.10;99.90;;;;;;5028008;28;21043;-85
2023/09/07 01:04:50;;;;;;;8.63;5.97;;;14.10;99.90;;;;;;5027565;28;20456;-86
2023/09/07 01:07:24;;;;;;;8.52;5.60;;;14.00;99.90;;;;;;5026964;28;20913;-86
2023/09/07 01:09:56;;;;;;;9.60;5.88;;;14.00;99.90;;;;;;5027418;28;20032;-85
2023/09/07 01:12:21;;;;;;;11.35;5.80;;;14.00;99.90;;;;;;5027365;28;20038;-85
2023/09/07 01:14:47;;;;;;;7.15;5.78;;;14.00;99.90;;;;;;5026648;28;20542;-86
2023/09/07 01:17:13;;;;;;;7.18;5.57;;;13.90;99.90;;;;;;5026866;28;20025;-86
2023/09/07 01:19:39;;;;;;;11.05;5.65;;;13.90;99.90;;;;;;5025862;28;20024;-85
2023/09/07 01:22:07;;;;;;;8.95;5.93;;;13.90;99.90;;;;;;5027200;28;20028;-85
2023/09/07 01:24:34;;;;;;;8.20;5.03;;;13.80;99.90;;;;;;5027088;28;20032;-86
2023/09/07 01:27:05;;;;;;;5.25;4.40;;;13.90;99.90;;;;;;5025499;28;20755;-85
2023/09/07 01:29:31;;;;;;;6.85;4.97;;;13.80;99.90;;;;;;5026562;28;20117;-85
2023/09/07 01:31:57;;;;;;;6.88;5.30;;;13.70;99.90;;;;;;5025789;28;20024;-86
2023/09/07 01:34:23;;;;;;;7.65;5.68;;;13.70;99.90;;;;;;5025858;28;20499;-85
2023/09/07 01:36:49;;;;;;;8.43;5.65;;;13.60;99.90;;;;;;5025877;28;20708;-86
2023/09/07 01:39:16;;;;;;;7.38;5.43;;;13.60;99.90;;;;;;5025713;28;20108;-84
2023/09/07 01:41:42;;;;;;;6.68;5.82;;;13.60;99.90;;;;;;5025986;28;20747;-83
2023/09/07 01:44:07;;;;;;;8.02;5.60;;;13.60;99.90;;;;;;5026292;28;20030;-83
2023/09/07 01:46:33;;;;;;;8.32;5.85;;;13.50;99.90;;;;;;5026128;28;21419;-84
2023/09/07 01:48:59;;;;;;;10.07;5.47;;;13.50;99.90;;;;;;5025935;28;20496;-84
2023/09/07 01:51:27;;;;;;;6.30;5.57;;;13.50;99.90;;;;;;5026126;28;20052;-83
2023/09/07 01:53:53;;;;;;;8.18;5.35;;;13.50;99.90;;;;;;5025839;28;20040;-84
2023/09/07 01:56:19;;;;;;;10.15;5.22;;;13.50;99.90;;;;;;5025621;28;20022;-83
2023/09/07 01:58:44;;;;;;;6.80;4.53;;;13.40;99.90;;;;;;5025692;28;20031;-86
2023/09/07 02:01:26;;;;;;;7.85;5.03;;;13.40;99.90;;;;;;5025320;28;20094;-85
2023/09/07 02:03:52;;;;;;;8.52;4.47;;;13.40;99.90;;;;;;5026226;28;20029;-85
2023/09/07 02:06:18;;;;;;;8.23;4.70;;;13.30;99.90;;;;;;5025286;28;20026;-85
2023/09/07 02:08:44;;;;;;;9.52;5.20;;;13.30;99.90;;;;;;5025322;28;20088;-84
2023/09/07 02:11:09;;;;;;;6.05;4.68;;;13.30;99.90;;;;;;5025614;28;20048;-85
2023/09/07 02:13:35;;;;;;;5.85;5.22;;;13.30;99.90;;;;;;5025667;28;20715;-84
2023/09/07 02:16:05;;;;;;;5.68;4.95;;;13.20;99.90;;;;;;5024949;28;20492;-84
2023/09/07 02:18:31;;;;;;;6.55;4.75;;;13.20;99.90;;;;;;5024396;28;20083;-84
2023/09/07 02:21:06;;;;;;;5.95;4.90;;;13.20;99.90;;;;;;5024600;28;20530;-84
2023/09/07 02:23:32;;;;;;;8.05;5.00;;;13.10;99.90;;;;;;5025222;28;20433;-84
2023/09/07 02:25:59;;;;;;;9.57;5.40;;;13.10;99.90;;;;;;5024617;28;20044;-85
2023/09/07 02:28:25;;;;;;;6.78;5.53;;;13.10;99.90;;;;;;5024596;28;20489;-84
2023/09/07 02:30:51;;;;;;;7.22;5.38;;;13.00;99.90;;;;;;5025009;28;20036;-84
2023/09/07 02:33:17;;;;;;;7.65;5.60;;;13.00;99.90;;;;;;5025649;28;20064;-84
2023/09/07 02:35:42;;;;;;;6.88;5.30;;;13.00;99.90;;;;;;5025834;28;20025;-85
2023/09/07 02:40:43;;;;;;;8.07;5.45;;;12.90;99.90;;;;;;5428771;22;20678;-84
2023/09/07 02:43:10;;;;;;;7.30;6.10;;;12.90;99.90;;;;;;4997870;28;20033;-85
2023/09/07 02:45:36;;;;;;;7.32;5.38;;;12.90;99.90;;;;;;5011343;28;20041;-86
2023/09/07 02:48:02;;;;;;;6.15;5.55;;;12.90;99.90;;;;;;5009514;28;20032;-86
2023/09/07 02:50:32;;;;;;;7.50;5.43;;;12.90;99.90;;;;;;5014342;28;20026;-87
2023/09/07 02:52:57;;;;;;;7.68;5.20;;;12.90;99.90;;;;;;5007288;28;20113;-86
2023/09/07 02:55:23;;;;;;;7.30;6.00;;;12.90;99.90;;;;;;5014567;28;20045;-86
2023/09/07 02:57:48;;;;;;;9.48;5.80;;;12.90;99.90;;;;;;5015062;28;20026;-85
2023/09/07 03:00:17;;;;;;;9.40;5.38;;;12.80;99.90;;;;;;4996578;28;20141;-86
2023/09/07 03:02:43;;;;;;;9.15;5.95;;;12.80;99.90;;;;;;5015586;28;20030;-86
2023/09/07 03:05:09;;;;;;;7.50;5.45;;;12.80;99.90;;;;;;5014385;28;20121;-85
2023/09/07 03:07:34;;;;;;;7.88;4.95;;;12.70;99.90;;;;;;5015041;28;20022;-85
2023/09/07 03:10:00;;;;;;;11.45;5.13;;;12.70;99.90;;;;;;5014623;28;20030;-86
2023/09/07 03:12:26;;;;;;;7.25;5.00;;;12.60;99.90;;;;;;5014283;28;20476;-86
2023/09/07 03:14:52;;;;;;;10.02;5.20;;;12.60;99.90;;;;;;5013004;28;20022;-85
2023/09/07 03:17:20;;;;;;;10.95;5.60;;;12.60;99.90;;;;;;4995649;28;20488;-85
2023/09/07 03:19:46;;;;;;;12.60;6.53;;;12.60;99.90;;;;;;5012447;28;20026;-86
2023/09/07 03:22:12;;;;;;;8.15;5.03;;;12.50;99.90;;;;;;5012732;28;20034;-86
2023/09/07 03:24:38;;;;;;;10.73;5.47;;;12.50;99.90;;;;;;5013515;28;20030;-86
2023/09/07 03:27:05;;;;;;;8.48;4.85;;;12.50;99.90;;;;;;5007709;28;20036;-86
2023/09/07 03:29:33;;;;;;;8.20;5.68;;;12.50;99.90;;;;;;4998780;28;20029;-85
2023/09/07 03:32:02;;;;;;;8.15;5.47;;;12.40;99.90;;;;;;4997845;28;20085;-86
2023/09/07 03:34:27;;;;;;;8.70;5.38;;;12.40;99.90;;;;;;4979550;28;20683;-86
2023/09/07 03:36:53;;;;;;;12.15;5.97;;;12.40;99.90;;;;;;4997888;28;20028;-85
2023/09/07 03:39:21;;;;;;;10.05;5.90;;;12.40;99.90;;;;;;4997718;28;20747;-85
2023/09/07 03:41:47;;;;;;;9.10;5.43;;;12.40;99.90;;;;;;4998458;28;20038;-86
2023/09/07 03:44:12;;;;;;;10.02;5.25;;;12.30;99.90;;;;;;4997666;28;20096;-85
2023/09/07 03:46:38;;;;;;;9.95;5.70;;;12.30;99.90;;;;;;4997715;28;20026;-86
2023/09/07 03:49:03;;;;;;;8.63;5.25;;;12.30;99.90;;;;;;4977649;28;20030;-85
2023/09/07 03:51:29;;;;;;;8.65;5.80;;;12.20;99.90;;;;;;4979831;28;20038;-86
2023/09/07 03:53:54;;;;;;;8.73;5.93;;;12.20;99.90;;;;;;5001301;28;20032;-85
2023/09/07 03:56:20;;;;;;;10.00;6.18;;;12.20;99.90;;;;;;4996547;28;20038;-85
2023/09/07 03:58:47;;;;;;;7.82;5.57;;;12.10;99.90;;;;;;5009512;28;20088;-86
2023/09/07 04:01:13;;;;;;;7.13;5.10;;;12.10;99.90;;;;;;5006029;28;20046;-85
2023/09/07 04:03:40;;;;;;;6.95;5.35;;;12.10;99.90;;;;;;4988413;28;20036;-86
2023/09/07 04:06:06;;;;;;;9.23;5.20;;;12.10;99.90;;;;;;4999384;28;20034;-85
2023/09/07 04:08:31;;;;;;;9.05;5.55;;;12.10;99.90;;;;;;4998405;28;20022;-85
2023/09/07 04:10:57;;;;;;;7.45;5.40;;;12.00;99.90;;;;;;4997820;28;20026;-85
2023/09/07 04:13:23;;;;;;;7.63;5.00;;;12.00;99.90;;;;;;4997221;28;20565;-85
2023/09/07 04:15:48;;;;;;;10.05;5.20;;;12.00;99.90;;;;;;4996275;28;20093;-86
2023/09/07 04:18:16;;;;;;;7.55;6.15;;;12.00;99.90;;;;;;4997407;28;20352;-85
2023/09/07 04:20:42;;;;;;;10.18;5.50;;;11.90;99.90;;;;;;4978813;28;20573;-85
2023/09/07 04:23:07;;;;;;;9.55;6.05;;;12.00;99.90;;;;;;4996743;28;20029;-85
2023/09/07 04:25:33;;;;;;;12.65;6.63;;;11.90;99.90;;;;;;4996288;28;21485;-86
2023/09/07 04:27:59;;;;;;;11.77;7.15;;;12.00;99.90;;;;;;4997446;28;20026;-86
2023/09/07 04:30:24;;;;;;;11.90;7.57;;;12.00;99.90;;;;;;4996906;28;20089;-86
2023/09/07 04:32:51;;;;;;;8.80;6.80;;;12.00;99.90;;;;;;4978475;28;20041;-85
2023/09/07 04:35:16;;;;;;;10.50;6.97;;;11.90;99.90;;;;;;4996673;28;20086;-85
2023/09/07 04:37:45;;;;;;;10.05;7.00;;;11.90;99.90;;;;;;4980118;28;21040;-86
2023/09/07 04:40:11;;;;;;;10.20;7.35;;;11.90;99.90;;;;;;4995010;28;20549;-84
2023/09/07 04:42:38;;;;;;;9.40;6.55;;;11.90;99.90;;;;;;4997653;28;20034;-85
2023/09/07 04:45:05;;;;;;;10.48;6.97;;;11.90;99.90;;;;;;4995725;28;20065;-86
2023/09/07 04:47:31;;;;;;;10.45;6.20;;;11.90;99.90;;;;;;4996454;28;20065;-86
2023/09/07 04:49:56;;;;;;;9.25;6.68;;;11.90;99.90;;;;;;4996862;28;20480;-86
2023/09/07 04:52:22;;;;;;;9.77;6.32;;;11.90;99.90;;;;;;4996871;28;20100;-86
2023/09/07 04:54:47;;;;;;;9.15;6.75;;;11.80;99.90;;;;;;4996899;28;20030;-85
2023/09/07 04:57:17;;;;;;;10.65;6.65;;;11.80;99.90;;;;;;4995937;28;20080;-85
2023/09/07 04:59:43;;;;;;;10.65;7.20;;;11.80;99.90;;;;;;4996242;28;20534;-85
2023/09/07 05:02:09;;;;;;;11.68;7.63;;;11.80;99.90;;;;;;4996633;28;20042;-86
2023/09/07 05:04:34;;;;;;;9.85;7.97;;;11.80;99.90;;;;;;4996793;28;20076;-85
2023/09/07 05:07:00;;;;;;;12.50;8.43;;;11.80;99.90;;;;;;4979224;28;20559;-85
2023/09/07 05:09:26;;;;;;;12.50;8.40;;;11.80;99.90;;;;;;4995227;28;20734;-85
2023/09/07 05:11:52;;;;;;;10.55;9.25;;;11.80;99.90;;;;;;4996879;28;20050;-85
2023/09/07 05:14:18;;;;;;;11.57;8.85;;;11.90;99.90;;;;;;4998721;28;20019;-85
2023/09/07 05:16:44;;;;;;;14.85;8.02;;;11.90;99.90;;;;;;4982532;28;20045;-85
2023/09/07 05:19:09;;;;;;;14.18;9.23;;;11.90;99.90;;;;;;4999970;28;20498;-85
2023/09/07 05:21:35;;;;;;;13.75;8.63;;;11.90;99.90;;;;;;5010558;28;20041;-86
2023/09/07 05:24:00;;;;;;;11.35;8.27;;;12.00;99.90;;;;;;5000186;28;20030;-86
2023/09/07 05:26:28;;;;;;;13.85;7.82;;;12.00;99.90;;;;;;5002434;28;20365;-85
2023/09/07 05:28:53;;;;;;;9.48;7.05;;;12.10;99.90;;;;;;5002514;28;20034;-85
2023/09/07 05:31:19;;;;;;;8.77;7.72;;;12.10;99.90;;;;;;5007223;28;20092;-85
2023/09/07 05:33:44;;;;;;;10.38;7.05;;;12.20;99.90;;;;;;5007395;28;20034;-85
2023/09/07 05:36:10;;;;;;;7.63;6.65;;;12.20;99.90;;;;;;5008070;28;20431;-86
2023/09/07 05:38:36;;;;;;;8.88;6.45;;;12.30;99.90;;;;;;5005744;28;20026;-85
2023/09/07 05:41:02;;;;;;;13.52;7.35;;;12.40;99.90;;;;;;4997881;28;20026;-84
2023/09/07 05:43:27;;;;;;;12.13;6.57;;;12.40;99.90;;;;;;4999825;28;20025;-86
2023/09/07 05:45:53;;;;;;;9.25;6.50;;;12.40;99.90;;;;;;4999491;28;20067;-85
2023/09/07 05:48:18;;;;;;;9.07;6.50;;;12.50;99.90;;;;;;4998897;28;20045;-85
2023/09/07 05:50:44;;;;;;;13.93;6.45;;;12.50;99.90;;;;;;4995472;28;20133;-85
2023/09/07 05:53:10;;;;;;;10.15;6.40;;;12.60;99.90;;;;;;4998894;28;20041;-86
2023/09/07 05:55:36;;;;;;;11.80;7.00;;;12.70;99.90;;;;;;4998864;28;20026;-85
2023/09/07 05:58:05;;;;;;;7.40;6.10;;;12.70;99.90;;;;;;4998573;28;20034;-85
2023/09/07 06:00:31;;;;;;;10.18;6.50;;;12.80;99.90;;;;;;4998163;28;20026;-86
2023/09/07 06:02:56;;;;;;;8.27;6.22;;;12.90;99.90;;;;;;4998696;28;20088;-85
2023/09/07 06:05:22;;;;;;;12.40;7.60;;;13.00;99.90;;;;;;5000779;28;20026;-86
2023/09/07 06:07:48;;;;;;;7.70;6.25;;;13.10;99.90;;;;;;4998232;28;20073;-85
2023/09/07 06:10:13;;;;;;;7.85;6.68;;;13.20;99.90;;;;;;4997349;28;20155;-86
2023/09/07 06:12:39;;;;;;;8.35;6.97;;;13.30;99.90;;;;;;4996232;28;20034;-86
2023/09/07 06:15:05;;;;;;;11.48;7.25;;;13.40;99.90;;;;;;4998276;28;20045;-85
2023/09/07 06:17:30;;;;;;;13.23;8.60;;;13.60;99.90;;;;;;4997227;28;20088;-86
2023/09/07 06:19:56;;;;;;;10.05;7.63;;;13.70;99.90;;;;;;4997445;28;20033;-86
2023/09/07 06:22:22;;;;;;;13.55;8.75;;;13.70;99.90;;;;;;4999618;28;20073;-86
2023/09/07 06:24:48;;;;;;;9.95;8.50;;;13.90;99.90;;;;;;4998323;28;20613;-85
2023/09/07 06:27:14;;;;;;;13.27;9.50;;;14.00;99.90;;;;;;4999014;28;20033;-86
2023/09/07 06:29:39;;;;;;;13.68;10.13;;;14.10;99.90;;;;;;4998015;28;20387;-85
2023/09/07 06:32:05;;;;;;;19.60;11.02;;;14.20;99.90;;;;;;4996663;28;20097;-86
2023/09/07 06:34:30;;;;;;;16.58;10.68;;;14.40;99.90;;;;;;4981929;28;20033;-86
2023/09/07 06:36:56;;;;;;;17.13;10.88;;;14.50;99.90;;;;;;4998928;28;20029;-86
2023/09/07 06:39:21;;;;;;;14.85;10.93;;;14.60;99.90;;;;;;4996072;28;20563;-85
2023/09/07 06:41:47;;;;;;;18.35;10.52;;;14.70;99.90;;;;;;4998751;28;20053;-85
2023/09/07 06:44:12;;;;;;;14.45;10.40;;;14.80;99.90;;;;;;4997378;28;21497;-86
2023/09/07 06:46:38;;;;;;;20.33;10.70;;;14.90;99.90;;;;;;5001202;28;20476;-86
2023/09/07 06:49:04;;;;;;;15.82;10.70;;;15.00;99.90;;;;;;4997307;28;20746;-86
2023/09/07 06:51:30;;;;;;;15.57;10.88;;;15.10;99.90;;;;;;5001626;28;20037;-86
2023/09/07 06:53:56;;;;;;;19.17;11.27;;;15.20;99.90;;;;;;5000468;28;20381;-86
2023/09/07 06:56:22;;;;;;;15.10;11.02;;;15.30;99.90;;;;;;4982284;28;20105;-86
2023/09/07 06:58:48;;;;;;;16.60;11.23;;;15.40;99.90;;;;;;4998950;28;20025;-86
2023/09/07 07:01:13;;;;;;;16.33;10.57;;;15.50;99.90;;;;;;4996947;28;20049;-85
2023/09/07 07:03:39;;;;;;;13.70;11.93;;;15.60;99.90;;;;;;4998383;28;20026;-87
2023/09/07 07:06:04;;;;;;;20.33;11.93;;;15.70;99.90;;;;;;4997862;28;20125;-86
2023/09/07 07:08:30;;;;;;;15.02;11.75;;;15.80;99.90;;;;;;4998356;28;20100;-86
2023/09/07 07:10:55;;;;;;;15.35;11.52;;;15.90;99.90;;;;;;4999855;28;20033;-86
2023/09/07 07:13:21;;;;;;;17.50;11.20;;;16.00;99.90;;;;;;5002143;28;20088;-86
2023/09/07 07:15:46;;;;;;;13.27;10.48;;;16.10;99.90;;;;;;4996504;28;20026;-86
2023/09/07 07:18:12;;;;;;;13.15;11.48;;;16.20;99.90;;;;;;4980438;28;20042;-86
2023/09/07 07:20:39;;;;;;;19.85;11.27;;;16.40;99.90;;;;;;4998646;28;20360;-86
2023/09/07 07:23:06;;;;;;;17.33;11.27;;;16.50;99.90;;;;;;4998492;28;20026;-86
2023/09/07 07:25:33;;;;;;;13.75;10.75;;;16.60;99.90;;;;;;4998382;28;20030;-87
2023/09/07 07:27:59;;;;;;;12.60;10.65;;;16.70;99.90;;;;;;4980651;28;20026;-85
2023/09/07 07:30:29;;;;;;;13.75;10.98;;;16.80;99.90;;;;;;4996592;28;20041;-86
2023/09/07 07:32:54;;;;;;;23.83;11.57;;;16.80;99.90;;;;;;4996466;28;20033;-86
2023/09/07 07:35:20;;;;;;;19.27;11.98;;;16.90;99.90;;;;;;4999028;28;20033;-86
2023/09/07 07:37:45;;;;;;;14.93;11.73;;;17.00;99.90;;;;;;4998326;28;20446;-85
2023/09/07 07:40:11;;;;;;;16.30;10.55;;;17.10;99.90;;;;;;4999366;28;20068;-86
2023/09/07 07:42:36;;;;;;;21.60;10.95;;;17.20;99.90;;;;;;4994054;28;20052;-87
2023/09/07 07:45:02;;;;;;;19.77;10.73;;;17.30;99.90;;;;;;4999230;28;20116;-86
2023/09/07 07:47:28;;;;;;;14.77;11.10;;;17.40;99.90;;;;;;4998823;28;20045;-86
2023/09/07 07:49:53;;;;;;;14.38;10.50;;;17.40;99.90;;;;;;4996889;28;20026;-87
2023/09/07 07:52:19;;;;;;;13.50;10.63;;;17.60;99.90;;;;;;4995334;28;20037;-86
2023/09/07 07:54:46;;;;;;;14.68;11.32;;;17.60;99.90;;;;;;4978114;28;20062;-86
2023/09/07 07:57:11;;;;;;;18.65;11.90;;;17.70;99.90;;;;;;4998574;28;20026;-85
2023/09/07 07:59:37;;;;;;;15.30;10.55;;;17.80;99.90;;;;;;4998567;28;20042;-87
2023/09/07 08:02:03;;;;;;;19.05;10.68;;;17.80;99.90;;;;;;4997799;28;20038;-86
2023/09/07 08:04:29;;;;;;;14.77;10.95;;;17.90;99.90;;;;;;4981669;28;20045;-87
2023/09/07 08:06:58;;;;;;;18.88;11.02;;;18.00;99.90;;;;;;4996701;28;21048;-86
2023/09/07 08:09:23;;;;;;;12.25;10.07;;;18.10;99.90;;;;;;4999114;28;20058;-86
2023/09/07 08:11:49;;;;;;;16.08;10.43;;;18.20;99.90;;;;;;4984445;28;20058;-86
2023/09/07 08:14:15;;;;;;;14.05;10.48;;;18.20;99.90;;;;;;4999530;28;20065;-87
2023/09/07 08:16:40;;;;;;;16.30;9.52;;;18.30;99.90;;;;;;4999774;28;20042;-86
2023/09/07 08:19:06;;;;;;;14.85;10.57;;;18.30;99.90;;;;;;4998532;28;20026;-87
2023/09/07 08:21:31;;;;;;;14.98;10.30;;;18.40;99.90;;;;;;4997689;28;20037;-87
2023/09/07 08:23:57;;;;;;;11.93;9.90;;;18.40;99.90;;;;;;4998153;28;20026;-86
2023/09/07 08:26:22;;;;;;;14.18;9.75;;;18.50;99.90;;;;;;4999219;28;20040;-87
2023/09/07 08:28:48;;;;;;;13.55;9.23;;;18.60;99.90;;;;;;4998278;28;20054;-86
2023/09/07 08:31:20;;;;;;;15.45;9.05;;;18.60;99.90;;;;;;4997325;28;20452;-86
2023/09/07 08:33:46;;;;;;;11.40;8.57;;;18.70;99.90;;;;;;4997472;28;20576;-86
2023/09/07 08:36:12;;;;;;;12.63;8.50;;;18.80;99.90;;;;;;4979896;28;20025;-86
2023/09/07 08:38:37;;;;;;;14.18;8.93;;;19.00;99.90;;;;;;4978710;28;20018;-86
2023/09/07 08:41:05;;;;;;;13.32;8.90;;;19.10;99.90;;;;;;4997258;28;20030;-86
2023/09/07 08:43:40;;;;;;;13.50;7.13;;;19.20;99.90;;;;;;5002911;28;20026;-87
2023/09/07 08:46:25;;;;;;;12.95;7.80;;;19.30;99.90;;;;;;5002556;28;20041;-86
2023/09/07 08:48:51;;;;;;;14.25;8.13;;;19.50;99.90;;;;;;5001560;28;20029;-86
2023/09/07 08:51:19;;;;;;;15.05;7.53;;;19.60;99.90;;;;;;5001833;28;20123;-86
2023/09/07 08:53:46;;;;;;;14.00;7.13;;;19.70;99.90;;;;;;5000635;28;20035;-86
2023/09/07 08:56:12;;;;;;;14.55;8.10;;;19.80;99.90;;;;;;5001880;28;20445;-87
2023/09/07 08:58:40;;;;;;;10.15;7.47;;;19.90;99.90;;;;;;5002081;28;20029;-86
2023/09/07 09:01:05;;;;;;;9.93;7.15;;;20.20;99.90;;;;;;4999090;28;20100;-86
2023/09/07 09:03:31;;;;;;;10.48;8.23;;;20.30;99.90;;;;;;5001191;28;20018;-87
2023/09/07 09:05:57;;;;;;;12.55;7.22;;;20.60;99.90;;;;;;5003500;28;20053;-87
2023/09/07 09:08:24;;;;;;;12.60;7.28;;;20.70;99.90;;;;;;5001811;28;20484;-86
2023/09/07 09:11:00;;;;;;;12.95;7.68;;;20.80;99.90;;;;;;5000967;28;20132;-87
2023/09/07 09:13:32;;;;;;;9.40;7.15;;;21.10;99.90;;;;;;4981973;28;21319;-87
2023/09/07 09:16:01;;;;;;;12.13;6.95;;;21.30;99.90;;;;;;5001288;28;20025;-87
2023/09/07 09:18:27;;;;;;;10.60;7.15;;;21.40;99.90;;;;;;5003959;28;20925;-87
2023/09/07 09:20:54;;;;;;;14.27;7.45;;;21.60;99.90;;;;;;5004170;28;20117;-86
2023/09/07 09:23:20;;;;;;;11.18;6.90;;;21.80;99.90;;;;;;5009416;28;20034;-84
2023/09/07 09:25:48;;;;;;;14.27;8.18;;;22.00;99.90;;;;;;5007538;28;20025;-84
2023/09/07 09:28:14;;;;;;;12.20;7.43;;;22.30;99.90;;;;;;5007622;28;20036;-84
2023/09/07 09:30:43;;;;;;;14.18;7.40;;;22.40;99.90;;;;;;5007195;28;20030;-83
2023/09/07 09:33:09;;;;;;;13.98;7.07;;;22.40;99.90;;;;;;5012243;28;20053;-85
2023/09/07 09:35:35;;;;;;;14.27;7.22;;;22.40;99.90;;;;;;5018189;28;20033;-83
2023/09/07 09:38:04;;;;;;;11.93;7.05;;;22.40;99.90;;;;;;5017215;28;20030;-85
2023/09/07 09:40:34;;;;;;;10.70;6.40;;;22.70;99.90;;;;;;4996651;28;20111;-85
2023/09/07 09:43:02;;;;;;;12.25;7.10;;;22.80;99.90;;;;;;4996886;28;20085;-84
2023/09/07 09:45:28;;;;;;;11.00;7.20;;;23.10;99.90;;;;;;4998887;28;20680;-85
2023/09/07 09:47:59;;;;;;;9.57;5.78;;;23.20;99.90;;;;;;4997754;28;21360;-85
2023/09/07 09:50:25;;;;;;;10.30;6.63;;;23.30;99.90;;;;;;4997928;28;20503;-84
2023/09/07 09:52:53;;;;;;;7.57;5.60;;;23.40;99.90;;;;;;4996404;28;20034;-84
2023/09/07 09:55:19;;;;;;;9.07;6.13;;;23.50;99.90;;;;;;4981251;28;20050;-85
2023/09/07 09:57:45;;;;;;;9.63;6.40;;;23.60;99.90;;;;;;4999737;28;20026;-85
2023/09/07 10:02:47;;;;;;;10.10;6.95;;;24.10;99.90;;;;;;4998501;28;20018;-84
2023/09/07 10:05:14;;;;;;;11.70;7.03;;;24.10;99.90;;;;;;4997677;28;20027;-85
2023/09/07 10:07:44;;;;;;;12.10;6.13;;;24.20;99.90;;;;;;4997529;28;20029;-85
2023/09/07 10:10:13;;;;;;;9.50;5.97;;;24.20;99.90;;;;;;4997624;28;20026;-85
2023/09/07 10:12:53;;;;;;;8.50;6.18;;;24.30;99.90;;;;;;4996686;28;20034;-85
2023/09/07 10:15:23;;;;;;;7.20;5.80;;;24.40;99.90;;;;;;4979514;28;20318;-84
2023/09/07 10:17:52;;;;;;;10.63;5.90;;;24.40;99.90;;;;;;4999148;28;20042;-85
2023/09/07 10:20:21;;;;;;;10.43;5.72;;;24.30;99.90;;;;;;4998375;28;20021;-85
2023/09/07 10:22:46;;;;;;;8.15;5.68;;;24.60;99.90;;;;;;4997524;28;20633;-85
2023/09/07 10:25:22;;;;;;;9.48;5.80;;;24.60;99.90;;;;;;4997412;28;20049;-85
2023/09/07 10:27:48;;;;;;;9.32;5.78;;;24.70;99.90;;;;;;4997854;28;20492;-86
2023/09/07 10:30:19;;;;;;;12.25;5.93;;;24.90;99.90;;;;;;4997406;28;20376;-85
2023/09/07 10:32:45;;;;;;;9.35;5.85;;;25.10;99.90;;;;;;4998757;28;20108;-84
2023/09/07 10:35:15;;;;;;;11.85;5.05;;;25.10;99.90;;;;;;4997954;28;20571;-86
2023/09/07 10:37:43;;;;;;;10.50;5.75;;;25.20;99.90;;;;;;4996876;28;20542;-85
2023/09/07 10:40:11;;;;;;;9.77;5.57;;;25.40;99.90;;;;;;4995673;28;20558;-86
2023/09/07 10:42:37;;;;;;;10.07;6.20;;;25.60;99.90;;;;;;4996381;28;20104;-84
2023/09/07 10:45:15;;;;;;;8.15;5.30;;;25.60;99.90;;;;;;4998089;28;20437;-85
2023/09/07 10:47:43;;;;;;;10.20;4.70;;;25.70;99.90;;;;;;4980068;28;20604;-85
2023/09/07 10:50:11;;;;;;;7.97;4.82;;;25.90;99.90;;;;;;4999843;28;20045;-84
2023/09/07 10:52:36;;;;;;;7.90;5.07;;;26.00;99.90;;;;;;4999372;28;20112;-85
2023/09/07 10:55:02;;;;;;;10.15;5.18;;;26.20;99.90;;;;;;5015249;28;20014;-85
2023/09/07 10:57:28;;;;;;;8.85;5.32;;;26.10;99.90;;;;;;5014829;28;20069;-84
2023/09/07 10:59:55;;;;;;;7.68;5.07;;;26.20;99.90;;;;;;5006387;28;20026;-86
2023/09/07 11:02:20;;;;;;;7.40;4.90;;;26.20;99.90;;;;;;4997726;28;20030;-86
2023/09/07 11:04:46;;;;;;;8.93;4.80;;;26.20;99.90;;;;;;4996858;28;20036;-84
2023/09/07 11:07:12;;;;;;;7.30;4.72;;;26.20;99.90;;;;;;4997677;28;20025;-85
2023/09/07 11:09:42;;;;;;;9.10;4.90;;;26.20;99.90;;;;;;4997631;28;20164;-86
2023/09/07 11:12:08;;;;;;;7.35;4.40;;;26.30;99.90;;;;;;4998405;28;20123;-86
2023/09/07 11:14:34;;;;;;;8.77;4.82;;;26.50;99.90;;;;;;4997490;28;20671;-85
2023/09/07 11:17:01;;;;;;;8.25;4.80;;;26.60;99.90;;;;;;4999479;28;20030;-85
2023/09/07 11:19:32;;;;;;;6.65;4.47;;;26.70;99.90;;;;;;4995912;28;20038;-85
2023/09/07 11:21:57;;;;;;;6.15;4.90;;;26.70;99.90;;;;;;4999958;28;20033;-84
2023/09/07 11:24:24;;;;;;;7.55;4.70;;;26.90;99.90;;;;;;4996759;28;20029;-86
2023/09/07 11:26:49;;;;;;;6.43;4.57;;;27.00;99.90;;;;;;4995980;28;20405;-85
2023/09/07 11:29:16;;;;;;;6.95;4.82;;;26.90;99.90;;;;;;4993588;28;20030;-85
2023/09/07 11:31:42;;;;;;;9.18;4.90;;;26.90;99.90;;;;;;4995831;28;20040;-85
2023/09/07 11:34:15;;;;;;;7.63;4.70;;;27.00;99.90;;;;;;4996669;28;20756;-86
2023/09/07 11:36:43;;;;;;;9.27;4.90;;;27.00;99.90;;;;;;4996698;28;20056;-85
2023/09/07 11:39:12;;;;;;;6.55;4.45;;;27.00;99.90;;;;;;4994357;28;20113;-86
2023/09/07 11:41:46;;;;;;;5.25;4.50;;;27.00;99.90;;;;;;4995801;28;20081;-86
2023/09/07 11:44:12;;;;;;;4.88;4.38;;;27.10;99.90;;;;;;4996832;28;20033;-85
2023/09/07 11:46:38;;;;;;;5.38;4.40;;;27.00;99.90;;;;;;4998666;28;20026;-85
2023/09/07 11:49:06;;;;;;;7.13;4.32;;;27.10;99.90;;;;;;4996628;28;20049;-85
2023/09/07 11:51:33;;;;;;;5.97;4.10;;;27.30;99.90;;;;;;4995936;28;20168;-86
2023/09/07 11:54:01;;;;;;;6.38;4.40;;;27.60;99.90;;;;;;4996248;28;20034;-85
2023/09/07 11:56:28;;;;;;;6.50;4.28;;;27.50;99.90;;;;;;4978875;28;20050;-86
2023/09/07 11:58:55;;;;;;;6.63;4.00;;;27.30;99.90;;;;;;5003495;28;20046;-85
2023/09/07 12:01:21;;;;;;;6.63;4.13;;;27.40;99.90;;;;;;4997219;28;20101;-87
2023/09/07 12:03:47;;;;;;;5.88;3.83;;;27.50;99.90;;;;;;4997038;28;20104;-86
2023/09/07 12:06:13;;;;;;;6.25;4.30;;;27.50;99.90;;;;;;4995017;28;20063;-87
2023/09/07 12:08:42;;;;;;;5.53;4.18;;;27.60;99.90;;;;;;4996157;28;20436;-85
2023/09/07 12:11:08;;;;;;;8.25;4.22;;;27.70;99.90;;;;;;4984016;28;20064;-85
2023/09/07 12:13:34;;;;;;;5.32;4.05;;;27.70;99.90;;;;;;5018615;28;20359;-86
2023/09/07 12:16:02;;;;;;;8.38;3.88;;;27.60;99.90;;;;;;5018358;28;20041;-85
2023/09/07 12:18:27;;;;;;;6.78;4.15;;;27.90;99.90;;;;;;5022951;28;20021;-84
2023/09/07 12:20:53;;;;;;;5.80;4.00;;;27.90;99.90;;;;;;5004891;28;20102;-86
2023/09/07 12:23:18;;;;;;;4.82;3.40;;;28.00;99.90;;;;;;4996733;28;20163;-86
2023/09/07 12:25:44;;;;;;;9.02;3.92;;;28.00;99.90;;;;;;4997488;28;20037;-86
2023/09/07 12:28:09;;;;;;;6.93;3.90;;;28.20;99.90;;;;;;4997466;28;20497;-84
2023/09/07 12:30:35;;;;;;;5.38;3.47;;;28.20;99.90;;;;;;4997078;28;20088;-85
2023/09/07 12:33:00;;;;;;;9.85;3.90;;;28.00;99.90;;;;;;4998295;28;20088;-86
2023/09/07 12:35:26;;;;;;;7.85;3.47;;;27.80;99.90;;;;;;4997064;28;20097;-85
2023/09/07 12:37:52;;;;;;;6.55;3.30;;;27.80;99.90;;;;;;4998729;28;20034;-85
2023/09/07 12:40:17;;;;;;;5.75;4.10;;;27.90;99.90;;;;;;4996821;28;20511;-85
2023/09/07 12:42:45;;;;;;;6.18;3.38;;;28.10;99.90;;;;;;4998978;28;20160;-85